Time;durP1;ratioP1;P1;durP2;ratioP2;P2;SDS_P1;SDS_P2;PMS_P1;PMS_P2;Temp;Humidity;BMP_temperature;BMP_pressure;BME280_temperature;BME280_humidity;BME280_pressure;Samples;Min_cycle;Max_cycle;Signal;HPM_P1;HPM_P2
2022/01/01 00:01:26;;;;;;;7.00;3.50;;;;;;;;;;4994128;28;20043;-78
2022/01/01 00:03:52;;;;;;;11.95;2.95;;;;;;;;;;4986255;28;20033;-79
2022/01/01 00:06:18;;;;;;;6.35;2.90;;;;;;;;;;4982328;28;20398;-79
2022/01/01 00:08:44;;;;;;;9.25;3.63;;;;;;;;;;4989956;28;20041;-78
2022/01/01 00:11:12;;;;;;;6.30;2.78;;;;;;;;;;4983559;28;20026;-79
2022/01/01 00:13:37;;;;;;;7.20;2.35;;;10.30;99.90;;;;;;4981767;28;20031;-78
2022/01/01 00:16:09;;;;;;;7.07;2.28;;;;;;;;;;5009541;28;20035;-79
2022/01/01 00:18:35;;;;;;;5.03;2.72;;;;;;;;;;4989107;28;20035;-79
2022/01/01 00:21:00;;;;;;;6.25;3.25;;;;;;;;;;4985590;28;20119;-79
2022/01/01 00:23:26;;;;;;;7.00;3.22;;;;;;;;;;4985501;28;20077;-80
2022/01/01 00:25:52;;;;;;;8.23;2.92;;;;;;;;;;4988866;28;20038;-80
2022/01/01 00:28:18;;;;;;;7.78;3.70;;;;;;;;;;4985674;28;20046;-80
2022/01/01 00:30:44;;;;;;;6.90;3.35;;;;;;;;;;4988385;28;20026;-80
2022/01/01 00:33:10;;;;;;;8.60;2.28;;;;;;;;;;4984907;28;20034;-80
2022/01/01 00:35:36;;;;;;;8.85;3.85;;;;;;;;;;4994190;28;20026;-80
2022/01/01 00:38:02;;;;;;;7.78;2.85;;;;;;;;;;4985226;28;20046;-80
2022/01/01 00:40:28;;;;;;;7.35;2.75;;;;;;;;;;4985036;28;20056;-79
2022/01/01 00:42:54;;;;;;;6.90;2.67;;;;;;;;;;4981886;28;20500;-80
2022/01/01 00:45:21;;;;;;;5.18;3.03;;;;;;;;;;4987493;28;20984;-80
2022/01/01 00:47:47;;;;;;;9.15;2.60;;;10.20;99.90;;;;;;4993666;28;20041;-79
2022/01/01 00:50:13;;;;;;;4.03;2.10;;;;;;;;;;4983860;28;20474;-81
2022/01/01 00:52:39;;;;;;;4.85;2.42;;;;;;;;;;4992182;28;20081;-79
2022/01/01 00:55:06;;;;;;;6.10;2.70;;;;;;;;;;4983946;28;20535;-81
2022/01/01 00:57:32;;;;;;;8.35;3.53;;;;;;;;;;4989587;28;20046;-80
2022/01/01 01:00:00;;;;;;;7.72;3.30;;;;;;;;;;4989267;28;20026;-79
2022/01/01 01:02:26;;;;;;;7.75;3.30;;;;;;;;;;4985936;28;20027;-80
2022/01/01 01:04:52;;;;;;;6.25;3.30;;;;;;;;;;4986067;28;20034;-80
2022/01/01 01:07:18;;;;;;;6.13;3.90;;;;;;;;;;4984350;28;20054;-80
2022/01/01 01:09:44;;;;;;;7.57;3.65;;;;;;;;;;4987052;28;20025;-79
2022/01/01 01:12:09;;;;;;;7.50;3.72;;;10.50;99.90;;;;;;4990055;28;20037;-79
2022/01/01 01:14:40;;;;;;;8.30;3.65;;;;;;;;;;4984118;28;20022;-81
2022/01/01 01:17:07;;;;;;;10.18;4.15;;;;;;;;;;4986711;28;20054;-79
2022/01/01 01:19:33;;;;;;;7.85;4.18;;;;;;;;;;4988972;28;20030;-79
2022/01/01 01:21:59;;;;;;;7.35;3.13;;;;;;;;;;4984399;28;20035;-79
2022/01/01 01:24:26;;;;;;;10.95;4.40;;;10.50;99.90;;;;;;4980054;28;20033;-80
2022/01/01 01:26:53;;;;;;;8.32;3.90;;;10.30;99.90;;;;;;4985981;28;20058;-79
2022/01/01 01:29:19;;;;;;;7.30;3.50;;;;;;;;;;4984580;28;20034;-79
2022/01/01 01:31:46;;;;;;;10.45;3.92;;;;;;;;;;4988359;28;20061;-79
2022/01/01 01:34:12;;;;;;;9.52;4.47;;;;;;;;;;4991005;28;20706;-79
2022/01/01 01:36:38;;;;;;;7.50;3.45;;;;;;;;;;4982674;28;20030;-80
2022/01/01 01:39:04;;;;;;;7.47;3.78;;;;;;;;;;4987342;28;20054;-79
2022/01/01 01:41:31;;;;;;;7.00;3.65;;;;;;;;;;4985915;28;20041;-79
2022/01/01 01:44:02;;;;;;;8.23;3.38;;;;;;;;;;4983718;28;20037;-79
2022/01/01 01:46:28;;;;;;;9.45;4.07;;;;;;;;;;4991135;28;20035;-79
2022/01/01 01:48:55;;;;;;;8.60;4.63;;;;;;;;;;4991461;28;20038;-80
2022/01/01 01:51:21;;;;;;;9.13;4.22;;;;;;;;;;4993956;28;20203;-79
2022/01/01 01:53:47;;;;;;;9.18;4.38;;;;;;;;;;4983329;28;20034;-79
2022/01/01 01:56:13;;;;;;;7.68;4.15;;;;;;;;;;4988511;28;20034;-79
2022/01/01 01:58:40;;;;;;;9.13;3.53;;;;;;;;;;4987995;28;20053;-79
2022/01/01 02:01:20;;;;;;;8.27;4.13;;;;;;;;;;4985271;28;20030;-79
2022/01/01 02:03:46;;;;;;;8.85;3.72;;;;;;;;;;4984202;28;20440;-80
2022/01/01 02:06:13;;;;;;;9.80;4.22;;;;;;;;;;4997909;28;20029;-79
2022/01/01 02:08:39;;;;;;;8.55;3.80;;;;;;;;;;4982653;28;20540;-79
2022/01/01 02:11:05;;;;;;;8.90;4.07;;;;;;;;;;4983073;28;20039;-79
2022/01/01 02:14:21;;;;;;;6.38;4.10;;;;;;;;;;4984520;28;20123;-79
2022/01/01 02:18:47;;;;;;;11.18;5.15;;;;;;;;;;4985745;28;20041;-80
2022/01/01 02:21:14;;;;;;;9.20;3.92;;;;;;;;;;4983692;28;20070;-79
2022/01/01 02:23:44;;;;;;;10.93;4.72;;;;;;;;;;4982307;28;20022;-80
2022/01/01 02:26:12;;;;;;;8.48;4.15;;;10.60;99.90;;;;;;4986557;28;20041;-80
2022/01/01 02:28:48;;;;;;;10.73;4.28;;;;;;;;;;4982106;28;20041;-80
2022/01/01 02:31:16;;;;;;;7.13;2.90;;;;;;;;;;4985574;28;20427;-80
2022/01/01 02:33:42;;;;;;;7.97;3.78;;;;;;;;;;4986695;28;20785;-80
2022/01/01 02:36:08;;;;;;;7.80;3.80;;;;;;;;;;4987735;28;20027;-80
2022/01/01 02:38:35;;;;;;;10.75;4.45;;;;;;;;;;4985038;28;20029;-79
2022/01/01 02:41:01;;;;;;;7.55;3.55;;;;;;;;;;4986073;28;20050;-80
2022/01/01 02:43:26;;;;;;;8.90;3.92;;;10.90;99.90;;;;;;4981844;28;20027;-79
2022/01/01 02:45:53;;;;;;;7.10;3.88;;;10.40;99.90;;;;;;4989079;28;20033;-79
2022/01/01 02:48:19;;;;;;;7.05;3.58;;;;;;;;;;4984787;28;20056;-79
2022/01/01 02:50:45;;;;;;;8.73;3.97;;;;;;;;;;4982219;28;20518;-79
2022/01/01 02:53:14;;;;;;;8.07;4.28;;;;;;;;;;4982628;28;20118;-79
2022/01/01 02:55:41;;;;;;;5.55;3.33;;;;;;;;;;4982780;28;20213;-79
2022/01/01 02:58:07;;;;;;;6.60;3.72;;;;;;;;;;4983575;28;20035;-79
2022/01/01 03:00:33;;;;;;;6.60;3.65;;;;;;;;;;4987075;28;20034;-79
2022/01/01 03:02:59;;;;;;;9.75;3.75;;;;;;;;;;4988496;28;20099;-79
2022/01/01 03:05:24;;;;;;;10.98;3.88;;;;;;;;;;4983552;28;20035;-79
2022/01/01 03:07:50;;;;;;;6.00;3.35;;;;;;;;;;4986800;28;20049;-79
2022/01/01 03:10:16;;;;;;;8.38;3.28;;;;;;;;;;4982536;28;20026;-79
2022/01/01 03:12:43;;;;;;;6.63;3.40;;;;;;;;;;4978177;28;20026;-79
2022/01/01 03:15:09;;;;;;;7.93;3.92;;;;;;;;;;4978277;28;20034;-80
2022/01/01 03:17:35;;;;;;;7.25;3.95;;;;;;;;;;4982799;28;20065;-80
2022/01/01 03:20:01;;;;;;;6.38;3.65;;;;;;;;;;4979007;28;20062;-80
2022/01/01 03:22:26;;;;;;;6.15;3.13;;;;;;;;;;4984982;28;20034;-80
2022/01/01 03:24:53;;;;;;;8.15;4.07;;;;;;;;;;4986275;28;21871;-79
2022/01/01 03:27:19;;;;;;;7.90;4.05;;;;;;;;;;4982614;28;20069;-80
2022/01/01 03:29:44;;;;;;;9.07;4.15;;;;;;;;;;4979515;28;20194;-79
2022/01/01 03:32:11;;;;;;;10.68;4.22;;;;;;;;;;4985579;28;20056;-79
2022/01/01 03:34:37;;;;;;;8.30;4.22;;;;;;;;;;4989494;28;20113;-80
2022/01/01 03:37:03;;;;;;;8.65;3.83;;;;;;;;;;4982382;28;20027;-79
2022/01/01 03:39:29;;;;;;;15.10;5.25;;;;;;;;;;4987941;28;20034;-80
2022/01/01 03:41:55;;;;;;;11.40;4.57;;;;;;;;;;4982775;28;20027;-80
2022/01/01 03:44:21;;;;;;;9.63;4.97;;;;;;;;;;4975847;28;20986;-79
2022/01/01 03:46:47;;;;;;;8.88;4.32;;;;;;;;;;4992409;28;20030;-79
2022/01/01 03:49:13;;;;;;;7.13;3.78;;;;;;;;;;4991148;28;20035;-79
2022/01/01 03:51:39;;;;;;;8.60;4.88;;;;;;;;;;4982305;28;20043;-79
2022/01/01 03:54:05;;;;;;;12.43;5.53;;;;;;;;;;4983096;28;20092;-79
2022/01/01 03:56:31;;;;;;;8.85;3.85;;;;;;;;;;4981189;28;20023;-80
2022/01/01 03:58:57;;;;;;;9.57;4.10;;;;;;;;;;4980523;28;20375;-79
2022/01/01 04:01:23;;;;;;;8.35;4.53;;;;;;;;;;4984345;28;20496;-79
2022/01/01 04:03:49;;;;;;;7.60;3.97;;;;;;;;;;4983828;28;20405;-80
2022/01/01 04:06:15;;;;;;;12.73;5.18;;;;;;;;;;4990276;28;20042;-81
2022/01/01 04:08:41;;;;;;;11.05;4.50;;;;;;;;;;4980485;28;20892;-79
2022/01/01 04:11:07;;;;;;;9.27;3.97;;;;;;;;;;4985154;28;20031;-79
2022/01/01 04:13:33;;;;;;;8.88;4.03;;;;;;;;;;4981030;28;20069;-79
2022/01/01 04:15:59;;;;;;;7.32;4.05;;;;;;;;;;4982057;28;20045;-79
2022/01/01 04:18:29;;;;;;;9.52;4.10;;;;;;;;;;4981957;28;20015;-80
2022/01/01 04:20:55;;;;;;;10.88;4.32;;;;;;;;;;4984210;28;20034;-79
2022/01/01 04:23:23;;;;;;;11.98;3.80;;;;;;;;;;4983009;28;20118;-79
2022/01/01 04:25:49;;;;;;;6.82;3.72;;;;;;;;;;4967840;28;20035;-80
2022/01/01 04:28:15;;;;;;;7.88;4.95;;;;;;;;;;4983129;28;20034;-80
2022/01/01 04:30:41;;;;;;;11.07;4.88;;;;;;;;;;4980796;28;20031;-80
2022/01/01 04:33:07;;;;;;;7.72;4.25;;;;;;;;;;4988264;28;20027;-79
2022/01/01 04:35:33;;;;;;;8.70;3.97;;;;;;;;;;4996411;28;20125;-78
2022/01/01 04:37:59;;;;;;;9.35;3.92;;;;;;;;;;4984815;28;20054;-78
2022/01/01 04:40:25;;;;;;;6.47;3.25;;;;;;;;;;4996368;28;20039;-79
2022/01/01 04:42:51;;;;;;;8.98;3.53;;;;;;;;;;4982955;28;20157;-79
2022/01/01 04:45:17;;;;;;;5.47;3.13;;;;;;;;;;4989403;28;20090;-80
2022/01/01 04:47:44;;;;;;;7.03;3.58;;;;;;;;;;4988855;28;20137;-80
2022/01/01 04:50:10;;;;;;;8.45;3.33;;;;;;;;;;4985059;28;20328;-80
2022/01/01 04:52:36;;;;;;;7.70;3.85;;;;;;;;;;4996731;28;20030;-80
2022/01/01 04:55:02;;;;;;;8.05;2.80;;;;;;;;;;4986831;28;20038;-79
2022/01/01 04:57:30;;;;;;;8.35;4.22;;;;;;;;;;4983295;28;20029;-80
2022/01/01 04:59:57;;;;;;;6.93;3.70;;;9.70;99.90;;;;;;4982427;28;20034;-80
2022/01/01 05:02:24;;;;;;;13.20;4.25;;;8.90;99.90;;;;;;4987786;28;20031;-79
2022/01/01 05:04:50;;;;;;;9.60;4.15;;;;;;;;;;4986589;28;20046;-79
2022/01/01 05:07:16;;;;;;;10.52;3.83;;;;;;;;;;4986725;28;20030;-79
2022/01/01 05:09:42;;;;;;;5.18;2.97;;;;;;;;;;4995597;28;20065;-79
2022/01/01 05:12:08;;;;;;;8.18;4.10;;;;;;;;;;4983132;28;20030;-79
2022/01/01 05:14:35;;;;;;;9.75;3.97;;;;;;;;;;4988532;28;20430;-79
2022/01/01 05:17:01;;;;;;;8.65;3.85;;;;;;;;;;4986518;28;20042;-80
2022/01/01 05:19:27;;;;;;;8.68;3.65;;;;;;;;;;4993244;28;20050;-79
2022/01/01 05:21:55;;;;;;;6.45;3.05;;;;;;;;;;4993232;28;20026;-80
2022/01/01 05:24:21;;;;;;;5.60;2.63;;;;;;;;;;4987721;28;20038;-80
2022/01/01 05:26:47;;;;;;;7.65;3.83;;;;;;;;;;4986620;28;20030;-79
2022/01/01 05:29:13;;;;;;;5.05;2.70;;;;;;;;;;4986532;28;20136;-79
2022/01/01 05:31:39;;;;;;;5.53;2.53;;;;;;;;;;4992429;28;20042;-79
2022/01/01 05:34:05;;;;;;;8.52;3.95;;;;;;;;;;4992750;28;20301;-79
2022/01/01 05:36:31;;;;;;;7.68;3.15;;;;;;;;;;4984949;28;20032;-80
2022/01/01 05:38:57;;;;;;;7.40;3.33;;;;;;;;;;4982602;28;20090;-79
2022/01/01 05:41:23;;;;;;;6.80;2.90;;;;;;;;;;5010254;28;20077;-79
2022/01/01 05:43:49;;;;;;;9.50;4.07;;;;;;;;;;4975243;28;20191;-80
2022/01/01 05:46:15;;;;;;;6.95;3.85;;;9.00;99.90;;;;;;4992223;28;20101;-79
2022/01/01 05:48:41;;;;;;;8.88;3.95;;;;;;;;;;5001754;28;20120;-81
2022/01/01 05:51:08;;;;;;;10.25;4.28;;;8.80;99.90;;;;;;4988083;28;20128;-80
2022/01/01 05:53:33;;;;;;;6.82;3.25;;;9.90;99.90;;;;;;4984057;28;20035;-79
2022/01/01 05:55:59;;;;;;;7.15;3.50;;;;;;;;;;4987407;28;20033;-79
2022/01/01 05:58:25;;;;;;;9.35;4.28;;;;;;;;;;4980509;28;20496;-81
2022/01/01 06:00:51;;;;;;;6.82;3.10;;;;;;;;;;4993322;28;20034;-79
2022/01/01 06:03:18;;;;;;;8.68;3.45;;;;;;;;;;4986873;28;20152;-80
2022/01/01 06:05:44;;;;;;;5.20;2.42;;;;;;;;;;4992282;28;20030;-79
2022/01/01 06:08:10;;;;;;;7.40;2.97;;;;;;;;;;4984923;28;20053;-79
2022/01/01 06:10:36;;;;;;;9.60;3.78;;;;;;;;;;4993566;28;20022;-79
2022/01/01 06:13:05;;;;;;;6.25;3.00;;;;;;;;;;4986776;28;20069;-79
2022/01/01 06:15:30;;;;;;;5.63;3.25;;;;;;;;;;4985931;28;20057;-79
2022/01/01 06:17:56;;;;;;;6.40;3.50;;;;;;;;;;4986700;28;20034;-79
2022/01/01 06:20:22;;;;;;;7.22;3.10;;;;;;;;;;4986401;28;20646;-79
2022/01/01 06:22:48;;;;;;;4.57;2.63;;;9.90;99.90;;;;;;4995050;28;20494;-79
2022/01/01 06:25:14;;;;;;;4.47;2.45;;;;;;;;;;5003284;28;20034;-79
2022/01/01 06:27:40;;;;;;;7.93;3.00;;;;;;;;;;4981369;28;20123;-79
2022/01/01 06:30:06;;;;;;;6.93;3.17;;;;;;;;;;4983243;28;20027;-79
2022/01/01 06:32:32;;;;;;;9.75;2.75;;;;;;;;;;4989762;28;20040;-79
2022/01/01 06:34:59;;;;;;;8.48;3.25;;;;;;;;;;5000334;28;20039;-80
2022/01/01 06:37:25;;;;;;;5.78;3.42;;;;;;;;;;4985291;28;20846;-80
2022/01/01 06:39:50;;;;;;;8.07;3.60;;;;;;;;;;4979955;28;20031;-79
2022/01/01 06:42:16;;;;;;;4.75;2.70;;;;;;;;;;4985517;28;20027;-78
2022/01/01 06:44:42;;;;;;;4.15;2.35;;;;;;;;;;4976268;28;20086;-80
2022/01/01 06:47:11;;;;;;;10.50;4.55;;;;;;;;;;4978968;28;20026;-80
2022/01/01 06:49:37;;;;;;;7.78;3.25;;;;;;;;;;4988716;28;20038;-81
2022/01/01 06:52:05;;;;;;;6.70;3.08;;;9.40;99.90;;;;;;4990808;28;20050;-81
2022/01/01 06:54:31;;;;;;;14.13;3.20;;;;;;;;;;4982615;28;20038;-81
2022/01/01 06:56:57;;;;;;;5.00;2.25;;;;;;;;;;4987663;28;20037;-81
2022/01/01 06:59:23;;;;;;;4.70;2.75;;;;;;;;;;4982664;28;20527;-81
2022/01/01 07:01:49;;;;;;;7.30;2.58;;;;;;;;;;4990257;28;20030;-80
2022/01/01 07:04:15;;;;;;;7.50;3.25;;;;;;;;;;4984424;28;20087;-80
2022/01/01 07:06:41;;;;;;;5.65;2.63;;;;;;;;;;4987546;28;20057;-82
2022/01/01 07:09:07;;;;;;;5.80;2.70;;;;;;;;;;4984166;28;20066;-81
2022/01/01 07:11:33;;;;;;;10.52;3.35;;;;;;;;;;4993484;28;20038;-80
2022/01/01 07:13:59;;;;;;;7.60;3.13;;;;;;;;;;4980116;28;20496;-81
2022/01/01 07:16:26;;;;;;;8.43;3.45;;;;;;;;;;4978407;28;20038;-80
2022/01/01 07:18:52;;;;;;;7.25;3.10;;;;;;;;;;4975561;28;20066;-79
2022/01/01 07:21:18;;;;;;;10.52;4.00;;;;;;;;;;4984150;28;20087;-79
2022/01/01 07:23:44;;;;;;;6.50;3.60;;;;;;;;;;4979718;28;20039;-80
2022/01/01 07:26:10;;;;;;;5.47;2.33;;;9.80;99.90;;;;;;4983884;28;20022;-82
2022/01/01 07:28:36;;;;;;;4.45;2.20;;;;;;;;;;4972570;28;20046;-80
2022/01/01 07:31:02;;;;;;;4.80;2.80;;;;;;;;;;4978187;28;20071;-79
2022/01/01 07:33:27;;;;;;;6.85;2.60;;;10.20;99.90;;;;;;4981214;28;20092;-82
2022/01/01 07:35:55;;;;;;;5.40;2.83;;;;;;;;;;4989420;28;20033;-81
2022/01/01 07:38:22;;;;;;;13.75;4.18;;;;;;;;;;4984428;28;20061;-81
2022/01/01 07:40:48;;;;;;;13.30;5.55;;;;;;;;;;4978271;28;20060;-79
2022/01/01 07:43:15;;;;;;;8.15;4.28;;;;;;;;;;4982162;28;20038;-80
2022/01/01 07:45:41;;;;;;;6.70;3.78;;;;;;;;;;4972867;28;20090;-81
2022/01/01 07:48:08;;;;;;;8.73;3.85;;;;;;;;;;4979454;28;20038;-82
2022/01/01 07:50:34;;;;;;;9.07;3.08;;;;;;;;;;4983390;28;20094;-82
2022/01/01 07:53:00;;;;;;;7.18;3.30;;;;;;;;;;4986069;28;20053;-81
2022/01/01 07:55:26;;;;;;;6.53;3.10;;;;;;;;;;4972766;28;20460;-82
2022/01/01 07:57:52;;;;;;;8.27;2.97;;;;;;;;;;4987292;28;20707;-81
2022/01/01 08:00:19;;;;;;;7.93;2.78;;;;;;;;;;4986207;28;20030;-81
2022/01/01 08:02:45;;;;;;;8.52;3.65;;;;;;;;;;4982598;28;20611;-81
2022/01/01 08:05:12;;;;;;;15.48;5.18;;;;;;;;;;4978345;28;20507;-83
2022/01/01 08:07:38;;;;;;;15.60;5.35;;;;;;;;;;4989070;28;20066;-81
2022/01/01 08:10:05;;;;;;;10.38;4.10;;;;;;;;;;4983476;28;20038;-81
2022/01/01 08:12:31;;;;;;;9.18;3.40;;;;;;;;;;4983710;28;20034;-82
2022/01/01 08:14:57;;;;;;;9.15;3.90;;;;;;;;;;4978479;28;20057;-82
2022/01/01 08:17:24;;;;;;;6.38;3.72;;;;;;;;;;4992570;28;20112;-81
2022/01/01 08:19:50;;;;;;;7.30;3.08;;;;;;;;;;4992913;28;20030;-81
2022/01/01 08:22:16;;;;;;;5.28;2.75;;;;;;;;;;4985777;28;20470;-81
2022/01/01 08:24:42;;;;;;;6.10;2.72;;;;;;;;;;4988662;28;20103;-80
2022/01/01 08:27:08;;;;;;;7.03;3.03;;;;;;;;;;4980516;28;20548;-81
2022/01/01 08:29:34;;;;;;;7.55;3.10;;;;;;;;;;4985492;28;20100;-81
2022/01/01 08:32:00;;;;;;;10.15;2.40;;;;;;;;;;4987703;28;20041;-81
2022/01/01 08:34:26;;;;;;;7.78;3.00;;;;;;;;;;4988689;28;20026;-81
2022/01/01 08:36:52;;;;;;;7.53;3.67;;;;;;;;;;4995074;28;20027;-81
2022/01/01 08:39:19;;;;;;;6.50;2.58;;;;;;;;;;4986803;28;20027;-82
2022/01/01 08:41:45;;;;;;;11.43;3.20;;;;;;;;;;4981897;28;20022;-80
2022/01/01 08:44:11;;;;;;;6.32;2.40;;;;;;;;;;4971676;28;20062;-81
2022/01/01 08:46:37;;;;;;;5.43;2.58;;;;;;;;;;4989481;28;20030;-81
2022/01/01 08:49:05;;;;;;;7.15;2.65;;;;;;;;;;4987174;28;20141;-80
2022/01/01 08:51:31;;;;;;;7.05;3.45;;;;;;;;;;4980149;28;20157;-80
2022/01/01 08:53:57;;;;;;;5.22;2.58;;;;;;;;;;4986451;28;20129;-80
2022/01/01 08:56:24;;;;;;;6.70;2.92;;;;;;;;;;4995697;28;20042;-81
2022/01/01 08:58:49;;;;;;;4.45;2.13;;;;;;;;;;4978796;28;20722;-80
2022/01/01 09:01:15;;;;;;;5.70;2.60;;;;;;;;;;4986180;28;20491;-80
2022/01/01 09:03:42;;;;;;;5.40;3.17;;;;;;;;;;4987652;28;20056;-79
2022/01/01 09:06:07;;;;;;;7.50;3.35;;;11.40;99.90;;;;;;4981640;28;20034;-80
2022/01/01 09:08:35;;;;;;;5.75;3.22;;;;;;;;;;4995208;28;20539;-80
2022/01/01 09:11:01;;;;;;;8.40;3.42;;;;;;;;;;4989900;28;20026;-81
2022/01/01 09:13:27;;;;;;;4.13;2.38;;;;;;;;;;4979721;28;20520;-80
2022/01/01 09:15:54;;;;;;;10.25;3.65;;;;;;;;;;4992557;28;20023;-80
2022/01/01 09:18:19;;;;;;;6.55;2.88;;;;;;;;;;5005377;28;20186;-80
2022/01/01 09:20:45;;;;;;;10.23;4.90;;;;;;;;;;4994870;28;20480;-81
2022/01/01 09:23:13;;;;;;;7.13;3.97;;;;;;;;;;4979328;28;20018;-80
2022/01/01 09:25:39;;;;;;;9.57;4.18;;;;;;;;;;4983167;28;20046;-81
2022/01/01 09:28:05;;;;;;;5.22;3.15;;;;;;;;;;4991076;28;20038;-80
2022/01/01 09:30:31;;;;;;;6.43;2.75;;;;;;;;;;5000243;28;20612;-80
2022/01/01 09:32:57;;;;;;;6.82;3.35;;;;;;;;;;5005902;28;20048;-80
2022/01/01 09:35:23;;;;;;;8.52;3.22;;;;;;;;;;5005496;28;20030;-80
2022/01/01 09:37:49;;;;;;;7.85;3.88;;;;;;;;;;4981601;28;20125;-81
2022/01/01 09:40:15;;;;;;;13.43;4.20;;;;;;;;;;4975080;28;20049;-81
2022/01/01 09:42:41;;;;;;;10.15;3.17;;;;;;;;;;4967095;28;20065;-81
2022/01/01 09:45:07;;;;;;;6.07;3.33;;;;;;;;;;4967911;28;20145;-81
2022/01/01 09:47:34;;;;;;;8.80;3.60;;;;;;;;;;4997625;28;20033;-81
2022/01/01 09:50:00;;;;;;;6.75;3.08;;;;;;;;;;4985573;28;20069;-81
2022/01/01 09:52:26;;;;;;;16.08;5.53;;;;;;;;;;4988001;28;20061;-81
2022/01/01 09:54:52;;;;;;;17.38;5.88;;;;;;;;;;4977168;28;20037;-80
2022/01/01 09:57:18;;;;;;;10.52;4.70;;;;;;;;;;4965543;28;20026;-80
2022/01/01 09:59:44;;;;;;;11.15;5.25;;;;;;;;;;4977943;28;20057;-80
2022/01/01 10:02:10;;;;;;;6.43;3.38;;;;;;;;;;4991056;28;20026;-82
2022/01/01 10:04:44;;;;;;;7.60;3.65;;;;;;;;;;4979149;28;20042;-82
2022/01/01 10:07:10;;;;;;;8.95;3.53;;;;;;;;;;4975800;28;20038;-82
2022/01/01 10:09:37;;;;;;;7.68;3.35;;;;;;;;;;4981605;28;20042;-82
2022/01/01 10:12:06;;;;;;;6.55;2.60;;;;;;;;;;4989385;28;20023;-82
2022/01/01 10:14:36;;;;;;;10.27;4.07;;;;;;;;;;4978166;28;20121;-82
2022/01/01 10:17:08;;;;;;;7.10;3.42;;;;;;;;;;4969905;28;20554;-82
2022/01/01 10:19:34;;;;;;;6.77;2.53;;;;;;;;;;4974050;28;20068;-81
2022/01/01 10:22:03;;;;;;;5.82;2.90;;;;;;;;;;4984205;28;20034;-81
2022/01/01 10:27:42;;;;;;;7.28;3.55;;;;;;;;;;4981149;28;20030;-81
2022/01/01 10:30:00;;;;;;;8.73;3.85;;;;;;;;;;4985351;28;20049;-81
2022/01/01 10:32:26;;;;;;;5.03;2.80;;;;;;;;;;4976014;28;20065;-81
2022/01/01 10:34:52;;;;;;;6.28;2.72;;;;;;;;;;4974524;28;20174;-81
2022/01/01 10:37:18;;;;;;;8.00;2.67;;;;;;;;;;4986003;28;20165;-80
2022/01/01 10:39:58;;;;;;;5.60;3.08;;;;;;;;;;4983213;28;20457;-80
2022/01/01 10:42:24;;;;;;;2.88;2.15;;;;;;;;;;4979094;28;20582;-80
2022/01/01 10:44:51;;;;;;;6.38;2.35;;;;;;;;;;4983579;28;20038;-80
2022/01/01 10:47:21;;;;;;;8.43;3.03;;;;;;;;;;4974722;28;20122;-80
2022/01/01 10:52:17;;;;;;;7.85;2.78;;;;;;;;;;4983383;28;20458;-80
2022/01/01 10:54:50;;;;;;;5.15;2.90;;;;;;;;;;4977601;28;20069;-80
2022/01/01 10:57:23;;;;;;;5.28;2.70;;;;;;;;;;4982774;28;21796;-80
2022/01/01 10:59:50;;;;;;;4.93;2.60;;;;;;;;;;4977119;28;20045;-80
2022/01/01 11:02:16;;;;;;;8.85;2.65;;;;;;;;;;4988404;28;20030;-80
2022/01/01 11:04:43;;;;;;;5.22;2.88;;;;;;;;;;4981658;28;20135;-81
2022/01/01 11:07:09;;;;;;;10.20;2.78;;;;;;;;;;4975817;28;20470;-81
2022/01/01 11:09:35;;;;;;;7.57;2.85;;;;;;;;;;4972486;28;20026;-81
2022/01/01 11:12:03;;;;;;;7.38;2.83;;;;;;;;;;4981548;28;20041;-82
2022/01/01 11:14:32;;;;;;;10.10;3.28;;;;;;;;;;4974340;28;20489;-81
2022/01/01 11:16:59;;;;;;;6.30;2.85;;;13.20;99.90;;;;;;4980567;28;20042;-81
2022/01/01 11:19:25;;;;;;;10.77;3.35;;;12.50;99.90;;;;;;4977305;28;20023;-81
2022/01/01 11:21:54;;;;;;;6.75;2.88;;;;;;;;;;4983206;28;20480;-80
2022/01/01 11:24:22;;;;;;;5.65;2.97;;;;;;;;;;4977577;28;20150;-81
2022/01/01 11:26:50;;;;;;;10.57;3.88;;;12.90;99.90;;;;;;4968560;28;20034;-80
2022/01/01 11:29:16;;;;;;;8.25;3.53;;;13.40;99.90;;;;;;4981431;28;21210;-80
2022/01/01 11:31:43;;;;;;;9.18;2.83;;;;;;;;;;4979214;28;20054;-81
2022/01/01 11:34:09;;;;;;;4.53;1.63;;;;;;;;;;4977625;28;20489;-82
2022/01/01 11:36:35;;;;;;;3.70;2.10;;;;;;;;;;4981151;28;20083;-79
2022/01/01 11:39:06;;;;;;;5.07;2.90;;;;;;;;;;4981578;28;20073;-81
2022/01/01 11:41:39;;;;;;;3.53;1.98;;;;;;;;;;4982909;28;20033;-82
2022/01/01 11:44:25;;;;;;;8.73;2.70;;;;;;;;;;4976131;28;20129;-84
2022/01/01 11:47:06;;;;;;;7.72;2.33;;;13.00;99.90;;;;;;4977655;28;20458;-82
2022/01/01 11:49:32;;;;;;;4.97;2.42;;;;;;;;;;4993146;28;20116;-81
2022/01/01 11:51:59;;;;;;;5.93;2.65;;;;;;;;;;4984676;28;20088;-82
2022/01/01 11:54:32;;;;;;;6.47;2.67;;;;;;;;;;4987579;28;20030;-82
2022/01/01 11:56:59;;;;;;;6.45;2.63;;;;;;;;;;4991264;28;20569;-80
2022/01/01 11:59:31;;;;;;;8.02;2.72;;;;;;;;;;4988907;28;20044;-82
2022/01/01 12:02:02;;;;;;;3.78;1.58;;;;;;;;;;4988509;28;20043;-83
2022/01/01 12:04:41;;;;;;;4.28;2.10;;;;;;;;;;4992966;28;20033;-81
2022/01/01 12:07:34;;;;;;;4.05;1.92;;;;;;;;;;4974874;28;20034;-81
2022/01/01 12:10:06;;;;;;;5.95;1.98;;;;;;;;;;4975907;28;20054;-82
2022/01/01 12:12:39;;;;;;;3.50;1.55;;;;;;;;;;4977194;28;20031;-82
2022/01/01 12:15:06;;;;;;;5.05;2.03;;;;;;;;;;4980798;28;20083;-81
2022/01/01 12:17:46;;;;;;;4.88;1.80;;;;;;;;;;4989422;28;20029;-81
2022/01/01 12:20:19;;;;;;;5.03;1.67;;;;;;;;;;4995290;28;20401;-82
2022/01/01 12:22:46;;;;;;;5.88;1.90;;;;;;;;;;4987487;28;20921;-81
2022/01/01 12:25:16;;;;;;;6.30;2.08;;;;;;;;;;4987521;28;20497;-82
2022/01/01 12:27:47;;;;;;;7.07;2.20;;;;;;;;;;4986085;28;20502;-81
2022/01/01 12:30:14;;;;;;;6.10;1.85;;;;;;;;;;4985390;28;20076;-81
2022/01/01 12:32:45;;;;;;;4.55;1.85;;;;;;;;;;4997481;28;20462;-82
2022/01/01 12:35:30;;;;;;;5.25;1.90;;;;;;;;;;5021260;28;20593;-81
2022/01/01 12:38:09;;;;;;;6.20;1.83;;;;;;;;;;4996843;28;20023;-82
2022/01/01 12:40:36;;;;;;;8.90;2.50;;;;;;;;;;4981369;28;20034;-82
2022/01/01 12:43:11;;;;;;;2.88;0.95;;;;;;;;;;4986036;28;20033;-82
2022/01/01 12:45:42;;;;;;;4.50;1.48;;;;;;;;;;4981359;28;20038;-83
2022/01/01 12:48:08;;;;;;;4.95;2.10;;;;;;;;;;4986054;28;20035;-81
2022/01/01 12:50:34;;;;;;;2.40;1.48;;;;;;;;;;4994303;28;20041;-81
2022/01/01 12:53:02;;;;;;;7.18;1.55;;;;;;;;;;5000966;28;20030;-81
2022/01/01 12:55:28;;;;;;;3.28;1.67;;;;;;;;;;4997102;28;20260;-83
2022/01/01 12:58:08;;;;;;;4.35;1.65;;;13.00;99.90;;;;;;4985375;28;20051;-82
2022/01/01 13:00:37;;;;;;;1.52;0.90;;;13.50;99.90;;;;;;4991893;28;20041;-81
2022/01/01 13:03:05;;;;;;;3.55;1.42;;;12.20;99.90;;;;;;4990719;28;20034;-82
2022/01/01 13:05:31;;;;;;;5.90;2.28;;;;;;;;;;4991305;28;20247;-82
2022/01/01 13:07:56;;;;;;;4.22;1.75;;;;;;;;;;4987289;28;20038;-83
2022/01/01 13:10:24;;;;;;;3.40;1.48;;;;;;;;;;4980519;28;20158;-82
2022/01/01 13:12:52;;;;;;;2.70;1.55;;;;;;;;;;4991862;28;20038;-82
2022/01/01 13:15:18;;;;;;;10.20;2.10;;;12.60;99.90;;;;;;4996715;28;20413;-81
2022/01/01 13:17:49;;;;;;;7.35;2.33;;;13.40;99.90;;;;;;4983112;28;20125;-81
2022/01/01 13:20:15;;;;;;;6.40;2.15;;;;;;;;;;4985746;28;20038;-81
2022/01/01 13:22:41;;;;;;;5.18;1.48;;;;;;;;;;4994636;28;20046;-81
2022/01/01 13:25:07;;;;;;;2.53;1.70;;;;;;;;;;4979906;28;20501;-83
2022/01/01 13:27:34;;;;;;;6.18;1.52;;;;;;;;;;4982472;28;20426;-81
2022/01/01 13:30:00;;;;;;;3.30;1.90;;;;;;;;;;4981989;28;20034;-83
2022/01/01 13:32:27;;;;;;;2.20;1.08;;;;;;;;;;4986971;28;20038;-81
2022/01/01 13:34:53;;;;;;;3.25;1.73;;;;;;;;;;4973976;28;20022;-81
2022/01/01 13:37:24;;;;;;;3.50;1.00;;;;;;;;;;4974232;28;20117;-81
2022/01/01 13:39:51;;;;;;;3.85;1.38;;;;;;;;;;4982394;28;20109;-82
2022/01/01 13:42:17;;;;;;;3.08;1.08;;;;;;;;;;4991186;28;20038;-82
2022/01/01 13:44:44;;;;;;;5.90;1.17;;;;;;;;;;5010718;28;20032;-81
2022/01/01 13:47:14;;;;;;;2.20;1.15;;;;;;;;;;4996221;28;20095;-80
2022/01/01 13:49:43;;;;;;;3.47;1.20;;;12.90;99.90;;;;;;4983526;28;20048;-81
2022/01/01 13:52:10;;;;;;;2.30;1.15;;;;;;;;;;4986475;28;20030;-81
2022/01/01 13:54:37;;;;;;;5.03;1.05;;;;;;;;;;4995225;28;20038;-81
2022/01/01 13:57:07;;;;;;;2.50;0.90;;;;;;;;;;4988194;28;20034;-82
2022/01/01 13:59:34;;;;;;;4.70;1.10;;;;;;;;;;4986046;28;20046;-81
2022/01/01 14:02:04;;;;;;;2.55;0.95;;;;;;;;;;4995179;28;20398;-81
2022/01/01 14:04:30;;;;;;;5.30;2.15;;;;;;;;;;4984288;28;20091;-82
2022/01/01 14:07:03;;;;;;;3.38;1.20;;;;;;;;;;4991236;28;20043;-82
2022/01/01 14:09:30;;;;;;;2.58;1.33;;;;;;;;;;4986651;28;20068;-81
2022/01/01 14:11:56;;;;;;;2.60;1.15;;;;;;;;;;4980380;28;20041;-82
2022/01/01 14:14:27;;;;;;;5.13;1.05;;;;;;;;;;4980619;28;20031;-82
2022/01/01 14:16:53;;;;;;;5.45;1.33;;;;;;;;;;4996411;28;20026;-82
2022/01/01 14:19:20;;;;;;;3.10;1.23;;;;;;;;;;4997735;28;20030;-83
2022/01/01 14:21:49;;;;;;;4.88;1.70;;;12.00;99.90;;;;;;4993174;28;20029;-82
2022/01/01 14:24:20;;;;;;;2.92;1.10;;;11.30;99.90;;;;;;4975862;28;20090;-82
2022/01/01 14:26:47;;;;;;;4.75;1.15;;;;;;;;;;4986717;28;20033;-82
2022/01/01 14:29:14;;;;;;;2.20;1.42;;;;;;;;;;4996157;28;20069;-81
2022/01/01 14:31:42;;;;;;;5.25;0.95;;;11.00;99.90;;;;;;4999799;28;20015;-82
2022/01/01 14:34:13;;;;;;;2.50;1.05;;;;;;;;;;5002378;28;20027;-83
2022/01/01 14:36:46;;;;;;;1.95;1.08;;;;;;;;;;5000721;28;20049;-83
2022/01/01 14:39:12;;;;;;;3.00;1.25;;;;;;;;;;4984215;28;20533;-83